createdAt,value
2018-09-01T00:00:22.684Z,7.30
2018-09-01T00:03:05.424Z,7.17
2018-09-01T00:05:48.146Z,7.63
2018-09-01T00:08:31.386Z,7.50
2018-09-01T00:11:14.887Z,7.10
2018-09-01T00:13:57.685Z,7.20
2018-09-01T00:16:40.818Z,7.23
2018-09-01T00:19:23.110Z,6.40
2018-09-01T00:22:07.304Z,7.50
2018-09-01T00:24:49.942Z,7.97
2018-09-01T00:27:33.448Z,8.30
2018-09-01T00:30:16.231Z,7.00
2018-09-01T00:32:58.985Z,8.33
2018-09-01T00:35:41.876Z,7.57
2018-09-01T00:38:29.733Z,7.87
2018-09-01T00:41:12.211Z,7.63
2018-09-01T00:43:55.081Z,7.00
2018-09-01T00:46:37.739Z,8.90
2018-09-01T00:49:20.489Z,7.30
2018-09-01T00:52:03.228Z,7.70
2018-09-01T00:54:46.217Z,7.43
2018-09-01T00:57:28.816Z,7.30
2018-09-01T01:00:12.867Z,8.27
2018-09-01T01:02:55.597Z,7.50
2018-09-01T01:05:38.232Z,7.77
2018-09-01T01:08:20.984Z,7.30
2018-09-01T01:11:03.771Z,7.77
2018-09-01T01:13:47.841Z,7.87
2018-09-01T01:16:30.478Z,8.60
2018-09-01T01:19:12.955Z,8.57
2018-09-01T01:21:55.708Z,7.47
2018-09-01T01:24:38.758Z,7.73
2018-09-01T01:27:21.488Z,7.70
2018-09-01T01:30:04.551Z,8.47
2018-09-01T01:32:47.009Z,8.50
2018-09-01T01:35:30.036Z,8.30
2018-09-01T01:38:12.965Z,8.57
2018-09-01T01:40:56.605Z,8.07
2018-09-01T01:43:39.253Z,8.80
2018-09-01T01:46:22.042Z,9.37
2018-09-01T01:49:04.943Z,8.10
2018-09-01T01:51:48.990Z,9.57
2018-09-01T01:54:31.838Z,8.03
2018-09-01T01:57:14.883Z,8.53
2018-09-01T01:59:57.800Z,8.73
2018-09-01T02:02:41.275Z,9.00
2018-09-01T02:05:27.944Z,8.80
2018-09-01T02:08:10.552Z,8.63
2018-09-01T02:10:53.754Z,9.10
2018-09-01T02:13:36.346Z,8.80
2018-09-01T02:16:18.953Z,8.70
2018-09-01T02:19:01.828Z,8.43
2018-09-01T02:21:45.329Z,9.00
2018-09-01T02:24:28.507Z,8.87
2018-09-01T02:27:11.612Z,8.20
2018-09-01T02:29:54.156Z,8.13
2018-09-01T02:32:39.199Z,9.17
2018-09-01T02:35:23.382Z,7.70
2018-09-01T02:38:06.400Z,7.93
2018-09-01T02:40:49.668Z,9.27
2018-09-01T02:43:32.872Z,8.83
2018-09-01T02:46:15.572Z,8.90
2018-09-01T02:48:58.630Z,7.73
2018-09-01T02:51:41.832Z,8.70
2018-09-01T02:54:25.122Z,8.73
2018-09-01T02:57:08.980Z,8.27
2018-09-01T02:59:52.777Z,8.40
2018-09-01T03:02:40.833Z,8.90
2018-09-01T03:05:23.534Z,8.70
2018-09-01T03:08:06.626Z,8.07
2018-09-01T03:10:49.644Z,7.53
2018-09-01T03:13:32.928Z,7.97
2018-09-01T03:16:15.984Z,9.20
2018-09-01T03:18:58.687Z,8.57
2018-09-01T03:21:41.592Z,10.20
2018-09-01T03:24:25.025Z,9.37
2018-09-01T03:27:08.164Z,9.40
2018-09-01T03:29:50.700Z,9.57
2018-09-01T03:32:33.692Z,8.60
2018-09-01T03:35:17.008Z,7.70
2018-09-01T03:38:00.929Z,6.93
2018-09-01T03:40:44.115Z,7.13
2018-09-01T03:43:27.128Z,7.50
2018-09-01T03:46:09.746Z,8.10
2018-09-01T03:48:52.920Z,7.20
2018-09-01T03:51:35.355Z,7.20
2018-09-01T03:54:19.115Z,8.83
2018-09-01T03:57:02.002Z,7.73
2018-09-01T03:59:45.174Z,7.97
2018-09-01T04:02:28.056Z,8.87
2018-09-01T04:05:10.653Z,8.53
2018-09-01T04:07:53.725Z,7.60
2018-09-01T04:10:36.357Z,7.83
2018-09-01T04:13:19.268Z,9.17
2018-09-01T04:16:02.162Z,8.77
2018-09-01T04:18:44.995Z,9.23
2018-09-01T04:21:27.345Z,8.77
2018-09-01T04:24:10.817Z,8.80
2018-09-01T04:26:53.996Z,8.97
2018-09-01T04:29:36.719Z,9.27
2018-09-01T04:32:19.300Z,8.87
2018-09-01T04:35:02.126Z,9.23
2018-09-01T04:37:44.957Z,9.10
2018-09-01T04:40:27.702Z,8.70
2018-09-01T04:43:11.117Z,8.00
2018-09-01T04:45:54.382Z,9.10
2018-09-01T04:48:37.096Z,8.60
2018-09-01T04:51:19.793Z,8.40
2018-09-01T04:54:02.916Z,8.93
2018-09-01T04:56:45.724Z,9.43
2018-09-01T04:59:29.148Z,9.20
2018-09-01T05:02:12.853Z,8.13
2018-09-01T05:04:55.574Z,11.20
2018-09-01T05:07:38.322Z,9.70
2018-09-01T05:10:21.337Z,8.77
2018-09-01T05:13:04.082Z,10.33
2018-09-01T05:15:47.108Z,10.40
2018-09-01T05:18:29.781Z,10.97
2018-09-01T05:21:12.645Z,10.47
2018-09-01T05:23:55.292Z,10.50
2018-09-01T05:26:38.445Z,10.03
2018-09-01T05:29:22.465Z,10.70
2018-09-01T05:32:05.672Z,10.53
2018-09-01T05:34:48.919Z,10.97
2018-09-01T05:37:31.629Z,10.43
2018-09-01T05:40:14.499Z,11.43
2018-09-01T05:42:57.573Z,9.97
2018-09-01T05:45:40.196Z,10.93
2018-09-01T05:48:22.963Z,10.50
2018-09-01T05:51:11.463Z,10.60
2018-09-01T05:53:55.566Z,10.43
2018-09-01T05:56:38.464Z,10.80
2018-09-01T05:59:22.203Z,10.33
2018-09-01T06:02:04.812Z,11.50
2018-09-01T06:04:48.213Z,10.53
2018-09-01T06:07:31.500Z,11.67
2018-09-01T06:10:14.069Z,10.30
2018-09-01T06:12:56.633Z,10.70
2018-09-01T06:15:39.287Z,10.53
2018-09-01T06:18:22.142Z,10.50
2018-09-01T06:21:05.669Z,9.93
2018-09-01T06:23:48.912Z,10.93
2018-09-01T06:26:31.613Z,10.20
2018-09-01T06:29:16.152Z,11.20
2018-09-01T06:32:02.966Z,10.20
2018-09-01T06:34:47.445Z,9.37
2018-09-01T06:37:29.951Z,10.13
2018-09-01T06:40:12.661Z,10.43
2018-09-01T06:42:55.602Z,10.67
2018-09-01T06:45:38.260Z,9.83
2018-09-01T06:48:22.211Z,11.23
2018-09-01T06:51:05.432Z,10.33
2018-09-01T06:53:48.813Z,10.07
2018-09-01T06:56:31.642Z,11.23
2018-09-01T06:59:14.595Z,9.57
2018-09-01T07:01:57.531Z,9.00
2018-09-01T07:04:40.067Z,8.50
2018-09-01T07:07:23.082Z,8.87
2018-09-01T07:10:06.334Z,8.90
2018-09-01T07:12:49.785Z,10.13
2018-09-01T07:15:32.950Z,8.53
2018-09-01T07:18:15.861Z,8.90
2018-09-01T07:20:59.607Z,9.07
2018-09-01T07:23:42.661Z,8.83
2018-09-01T07:26:25.415Z,9.07
2018-09-01T07:29:09.184Z,10.20
2018-09-01T07:31:52.419Z,8.80
2018-09-01T07:34:35.716Z,9.17
2018-09-01T07:37:18.975Z,9.53
2018-09-01T07:40:02.115Z,9.00
2018-09-01T07:42:45.903Z,10.00
2018-09-01T07:45:29.650Z,9.80
2018-09-01T07:48:15.271Z,9.27
2018-09-01T07:50:58.654Z,10.37
2018-09-01T07:53:41.465Z,9.83
2018-09-01T07:56:24.376Z,9.47
2018-09-01T07:59:07.289Z,8.47
2018-09-01T08:01:51.672Z,9.30
2018-09-01T08:04:34.231Z,8.20
2018-09-01T08:07:16.835Z,7.93
2018-09-01T08:09:59.776Z,7.17
2018-09-01T08:12:42.364Z,8.47
2018-09-01T08:15:25.276Z,7.97
2018-09-01T08:18:08.153Z,7.70
2018-09-01T08:20:51.203Z,8.20
2018-09-01T08:23:33.942Z,7.83
2018-09-01T08:26:16.976Z,8.90
2018-09-01T08:28:59.654Z,8.37
2018-09-01T08:31:42.334Z,7.50
2018-09-01T08:34:25.007Z,9.23
2018-09-01T08:37:07.865Z,8.77
2018-09-01T08:39:50.304Z,8.53
2018-09-01T08:42:33.596Z,8.17
2018-09-01T08:45:17.014Z,7.90
2018-09-01T08:48:00.381Z,8.47
2018-09-01T08:50:43.506Z,8.93
2018-09-01T08:53:26.251Z,8.53
2018-09-01T08:56:08.915Z,8.47
2018-09-01T08:58:51.809Z,8.63
2018-09-01T09:01:34.972Z,8.27
2018-09-01T09:04:17.437Z,7.87
2018-09-01T09:07:00.408Z,8.10
2018-09-01T09:09:43.112Z,8.43
2018-09-01T09:12:26.504Z,8.60
2018-09-01T09:15:09.861Z,8.67
2018-09-01T09:17:52.976Z,8.70
2018-09-01T09:20:35.792Z,8.60
2018-09-01T09:23:19.407Z,9.53
2018-09-01T09:26:02.065Z,9.60
2018-09-01T09:28:45.676Z,9.20
2018-09-01T09:31:28.549Z,9.18
2018-09-01T09:34:11.517Z,7.93
2018-09-01T09:36:55.705Z,8.15
2018-09-01T09:39:39.578Z,7.90
2018-09-01T09:42:23.232Z,7.93
2018-09-01T09:45:05.564Z,8.87
2018-09-01T09:47:48.575Z,8.90
2018-09-01T09:50:31.192Z,8.10
2018-09-01T09:53:14.100Z,9.73
2018-09-01T09:55:56.912Z,8.97
2018-09-01T09:58:39.801Z,9.10
2018-09-01T10:01:27.704Z,8.33
2018-09-01T10:04:28.687Z,7.93
2018-09-01T10:07:12.163Z,8.50
2018-09-01T10:09:54.663Z,7.93
2018-09-01T10:12:37.795Z,6.47
2018-09-01T10:15:20.395Z,5.40
2018-09-01T10:18:03.234Z,5.03
2018-09-01T10:20:45.621Z,5.43
2018-09-01T10:23:28.420Z,5.07
2018-09-01T10:26:11.234Z,5.33
2018-09-01T10:28:54.379Z,5.33
2018-09-01T10:31:37.228Z,4.80
2018-09-01T10:34:20.177Z,4.87
2018-09-01T10:37:02.706Z,5.80
2018-09-01T10:39:45.629Z,5.83
2018-09-01T10:42:28.159Z,5.30
2018-09-01T10:45:11.031Z,5.10
2018-09-01T10:47:53.741Z,4.73
2018-09-01T10:50:36.564Z,5.70
2018-09-01T10:53:19.298Z,5.23
2018-09-01T10:56:02.055Z,5.43
2018-09-01T10:58:47.214Z,5.70
2018-09-01T11:01:30.872Z,5.07
2018-09-01T11:04:13.157Z,5.30
2018-09-01T11:06:56.572Z,4.90
2018-09-01T11:09:38.956Z,5.20
2018-09-01T11:12:21.951Z,4.60
2018-09-01T11:15:04.428Z,5.40
2018-09-01T11:17:47.201Z,4.93
2018-09-01T11:20:30.241Z,5.23
2018-09-01T11:23:13.372Z,5.90
2018-09-01T11:25:56.687Z,6.00
2018-09-01T11:28:39.469Z,5.63
2018-09-01T11:31:22.260Z,6.43
2018-09-01T11:34:05.483Z,5.47
2018-09-01T11:36:48.312Z,5.80
2018-09-01T11:39:31.175Z,6.20
2018-09-01T11:42:15.329Z,6.13
2018-09-01T11:44:58.415Z,6.27
2018-09-01T11:47:41.668Z,5.77
2018-09-01T11:50:24.224Z,5.70
2018-09-01T11:53:07.953Z,5.10
2018-09-01T11:55:51.066Z,5.70
2018-09-01T11:58:33.970Z,5.90
2018-09-01T12:01:16.368Z,5.67
2018-09-01T12:03:59.028Z,6.20
2018-09-01T12:06:42.031Z,5.00
2018-09-01T12:09:25.215Z,6.20
2018-09-01T12:12:08.041Z,5.50
2018-09-01T12:14:50.627Z,6.37
2018-09-01T12:17:33.668Z,6.13
2018-09-01T12:20:16.059Z,5.35
2018-09-01T12:22:59.030Z,5.03
2018-09-01T12:25:41.960Z,6.30
2018-09-01T12:28:24.762Z,5.80
2018-09-01T12:31:08.055Z,5.20
2018-09-01T12:33:51.045Z,6.40
2018-09-01T12:36:34.540Z,5.50
2018-09-01T12:39:17.388Z,5.03
2018-09-01T12:42:00.554Z,6.13
2018-09-01T12:44:43.281Z,6.17
2018-09-01T12:47:26.265Z,6.20
2018-09-01T12:50:08.704Z,5.90
2018-09-01T12:52:51.574Z,5.90
2018-09-01T12:55:34.814Z,5.60
2018-09-01T12:58:17.281Z,6.97
2018-09-01T13:01:00.488Z,7.07
2018-09-01T13:03:42.792Z,6.27
2018-09-01T13:06:25.993Z,5.80
2018-09-01T13:09:09.822Z,6.20
2018-09-01T13:11:52.923Z,5.97
2018-09-01T13:14:35.884Z,6.77
2018-09-01T13:17:18.706Z,7.93
2018-09-01T13:20:01.471Z,7.50
2018-09-01T13:22:44.436Z,7.47
2018-09-01T13:25:27.343Z,5.90
2018-09-01T13:28:10.037Z,6.43
2018-09-01T13:30:52.939Z,7.00
2018-09-01T13:33:36.130Z,5.67
2018-09-01T13:36:19.638Z,6.30
2018-09-01T13:39:03.435Z,8.67
2018-09-01T13:41:47.174Z,6.63
2018-09-01T13:44:29.696Z,7.30
2018-09-01T13:47:13.892Z,6.33
2018-09-01T13:49:56.401Z,7.00
2018-09-01T13:52:39.814Z,6.37
2018-09-01T13:55:22.451Z,7.37
2018-09-01T13:58:05.768Z,6.17
2018-09-01T14:00:48.371Z,7.37
2018-09-01T14:03:31.122Z,6.60
2018-09-01T14:06:14.691Z,7.07
2018-09-01T14:08:57.552Z,7.40
2018-09-01T14:11:41.826Z,5.70
2018-09-01T14:14:25.154Z,11.00
2018-09-01T14:17:07.836Z,10.63
2018-09-01T14:19:55.452Z,8.60
2018-09-01T14:22:38.416Z,6.70
2018-09-01T14:25:21.825Z,7.33
2018-09-01T14:28:05.789Z,6.17
2018-09-01T14:30:48.609Z,6.80
2018-09-01T14:33:31.573Z,6.10
2018-09-01T14:36:14.383Z,6.87
2018-09-01T14:38:57.111Z,6.10
2018-09-01T14:41:40.026Z,6.33
2018-09-01T14:44:23.351Z,6.33
2018-09-01T14:47:05.994Z,5.60
2018-09-01T14:49:49.275Z,5.77
2018-09-01T14:52:33.772Z,5.43
2018-09-01T14:55:16.323Z,5.10
2018-09-01T14:57:59.139Z,5.67
2018-09-01T15:00:41.942Z,5.90
2018-09-01T15:03:24.776Z,6.10
2018-09-01T15:06:07.979Z,6.27
2018-09-01T15:08:50.379Z,6.87
2018-09-01T15:11:33.125Z,7.33
2018-09-01T15:14:16.474Z,7.00
2018-09-01T15:16:59.610Z,6.67
2018-09-01T15:19:43.380Z,5.70
2018-09-01T15:22:26.684Z,8.23
2018-09-01T15:25:09.903Z,7.40
2018-09-01T15:27:52.904Z,7.03
2018-09-01T15:30:35.797Z,5.80
2018-09-01T15:33:18.917Z,5.73
2018-09-01T15:36:02.170Z,5.40
2018-09-01T15:38:44.953Z,5.50
2018-09-01T15:41:27.527Z,6.93
2018-09-01T15:44:10.576Z,6.27
2018-09-01T15:46:53.984Z,5.30
2018-09-01T15:49:36.577Z,6.00
2018-09-01T15:52:19.603Z,6.10
2018-09-01T15:55:02.361Z,6.00
2018-09-01T15:57:45.153Z,5.63
2018-09-01T16:00:28.039Z,6.03
2018-09-01T16:03:11.059Z,5.80
2018-09-01T16:05:53.796Z,6.17
2018-09-01T16:08:36.468Z,6.67
2018-09-01T16:11:19.075Z,6.70
2018-09-01T16:14:02.787Z,6.90
2018-09-01T16:16:45.620Z,5.77
2018-09-01T16:19:28.591Z,6.90
2018-09-01T16:22:11.391Z,6.60
2018-09-01T16:24:56.256Z,6.27
2018-09-01T16:27:38.618Z,6.93
2018-09-01T16:30:21.579Z,7.73
2018-09-01T16:33:04.374Z,7.40
2018-09-01T16:35:47.142Z,7.47
2018-09-01T16:38:29.959Z,6.30
2018-09-01T16:41:12.533Z,6.47
2018-09-01T16:43:56.592Z,7.37
2018-09-01T16:46:39.596Z,6.33
2018-09-01T16:49:23.320Z,7.57
2018-09-01T16:52:07.694Z,6.30
2018-09-01T16:54:50.352Z,6.07
2018-09-01T16:57:34.525Z,5.60
2018-09-01T17:00:17.879Z,6.43
2018-09-01T17:03:01.134Z,6.17
2018-09-01T17:05:44.688Z,5.97
2018-09-01T17:08:28.147Z,5.87
2018-09-01T17:11:10.948Z,6.80
2018-09-01T17:13:53.534Z,6.77
2018-09-01T17:16:36.463Z,7.30
2018-09-01T17:19:19.047Z,6.27
2018-09-01T17:22:01.988Z,5.97
2018-09-01T17:24:44.631Z,7.00
2018-09-01T17:27:27.557Z,6.60
2018-09-01T17:30:10.124Z,6.53
2018-09-01T17:32:53.497Z,5.90
2018-09-01T17:35:36.975Z,6.90
2018-09-01T17:38:19.533Z,7.50
2018-09-01T17:41:02.700Z,6.90
2018-09-01T17:43:46.269Z,6.40
2018-09-01T17:46:28.971Z,6.23
2018-09-01T17:49:11.393Z,8.67
2018-09-01T17:51:54.704Z,7.10
2018-09-01T17:54:38.193Z,6.73
2018-09-01T17:57:21.277Z,7.70
2018-09-01T18:00:05.049Z,8.93
2018-09-01T18:02:48.766Z,6.03
2018-09-01T18:05:32.171Z,7.03
2018-09-01T18:08:14.926Z,6.40
2018-09-01T18:10:57.998Z,6.93
2018-09-01T18:13:42.321Z,8.27
2018-09-01T18:16:26.436Z,6.83
2018-09-01T18:19:09.938Z,6.43
2018-09-01T18:21:52.669Z,6.70
2018-09-01T18:24:35.608Z,6.60
2018-09-01T18:27:18.499Z,7.80
2018-09-01T18:30:01.979Z,6.90
2018-09-01T18:32:44.650Z,6.97
2018-09-01T18:35:27.646Z,6.13
2018-09-01T18:38:10.230Z,5.77
2018-09-01T18:40:53.074Z,7.03
2018-09-01T18:43:35.872Z,7.60
2018-09-01T18:46:18.850Z,8.03
2018-09-01T18:49:03.575Z,6.43
2018-09-01T18:51:46.928Z,5.90
2018-09-01T18:54:30.548Z,6.23
2018-09-01T18:57:13.369Z,5.80
2018-09-01T18:59:56.972Z,5.20
2018-09-01T19:02:40.569Z,5.00
2018-09-01T19:05:22.946Z,5.20
2018-09-01T19:08:06.191Z,5.37
2018-09-01T19:10:48.555Z,5.80
2018-09-01T19:13:32.598Z,5.17
2018-09-01T19:16:15.501Z,5.40
2018-09-01T19:18:58.538Z,5.20
2018-09-01T19:21:42.731Z,4.90
2018-09-01T19:24:26.264Z,5.33
2018-09-01T19:27:09.372Z,5.83
2018-09-01T19:29:52.302Z,6.07
2018-09-01T19:32:35.859Z,5.70
2018-09-01T19:35:19.848Z,5.30
2018-09-01T19:38:02.896Z,5.80
2018-09-01T19:40:46.583Z,5.43
2018-09-01T19:43:30.399Z,5.40
2018-09-01T19:46:14.485Z,5.70
2018-09-01T19:48:57.771Z,4.90
2018-09-01T19:51:40.420Z,5.47
2018-09-01T19:54:23.613Z,4.73
2018-09-01T19:57:07.504Z,6.40
2018-09-01T19:59:50.629Z,5.37
2018-09-01T20:02:33.765Z,6.33
2018-09-01T20:05:17.283Z,5.10
2018-09-01T20:08:00.078Z,4.97
2018-09-01T20:10:43.803Z,5.47
2018-09-01T20:13:26.899Z,5.50
2018-09-01T20:16:09.999Z,5.00
2018-09-01T20:18:53.822Z,5.20
2018-09-01T20:21:37.118Z,5.47
2018-09-01T20:24:20.689Z,5.37
2018-09-01T20:27:03.877Z,5.20
2018-09-01T20:29:48.367Z,5.50
2018-09-01T20:32:30.729Z,5.37
2018-09-01T20:35:18.853Z,4.97
2018-09-01T20:38:02.103Z,5.53
2018-09-01T20:40:44.851Z,5.60
2018-09-01T20:43:27.526Z,5.60
2018-09-01T20:46:10.559Z,5.60
2018-09-01T20:48:53.897Z,5.70
2018-09-01T20:51:36.654Z,5.40
2018-09-01T20:54:19.304Z,5.50
2018-09-01T20:57:02.465Z,6.17
2018-09-01T20:59:45.897Z,5.50
2018-09-01T21:02:28.914Z,5.10
2018-09-01T21:05:11.507Z,4.83
2018-09-01T21:07:54.883Z,5.60
2018-09-01T21:10:38.138Z,5.17
2018-09-01T21:13:20.921Z,5.70
2018-09-01T21:16:03.703Z,5.10
2018-09-01T21:18:46.371Z,5.63
2018-09-01T21:21:29.238Z,5.60
2018-09-01T21:24:11.975Z,5.87
2018-09-01T21:26:54.973Z,5.27
2018-09-01T21:29:37.298Z,5.73
2018-09-01T21:32:20.125Z,5.77
2018-09-01T21:35:02.888Z,6.27
2018-09-01T21:37:45.795Z,5.27
2018-09-01T21:40:28.519Z,5.53
2018-09-01T21:43:11.264Z,5.73
2018-09-01T21:45:54.160Z,4.90
2018-09-01T21:48:37.067Z,5.57
2018-09-01T21:51:20.355Z,4.83
2018-09-01T21:54:03.036Z,6.17
2018-09-01T21:56:45.849Z,6.33
2018-09-01T21:59:28.524Z,5.80
2018-09-01T22:02:16.068Z,5.90
2018-09-01T22:05:03.775Z,6.33
2018-09-01T22:07:46.774Z,6.83
2018-09-01T22:10:29.369Z,6.10
2018-09-01T22:13:12.227Z,5.57
2018-09-01T22:15:54.984Z,5.70
2018-09-01T22:18:37.699Z,5.93
2018-09-01T22:21:20.596Z,4.93
2018-09-01T22:24:03.485Z,6.07
2018-09-01T22:26:46.086Z,5.40
2018-09-01T22:29:28.753Z,5.13
2018-09-01T22:32:13.131Z,6.00
2018-09-01T22:34:56.328Z,5.20
2018-09-01T22:37:39.165Z,5.97
2018-09-01T22:40:21.920Z,6.13
2018-09-01T22:43:05.195Z,5.80
2018-09-01T22:45:47.520Z,6.60
2018-09-01T22:48:30.579Z,5.93
2018-09-01T22:51:13.322Z,6.47
2018-09-01T22:53:56.109Z,5.70
2018-09-01T22:56:38.979Z,5.93
2018-09-01T22:59:21.929Z,5.50
2018-09-01T23:02:04.829Z,5.50
2018-09-01T23:04:47.818Z,6.30
2018-09-01T23:07:30.552Z,5.43
2018-09-01T23:10:13.521Z,5.60
2018-09-01T23:12:56.496Z,5.30
2018-09-01T23:15:39.182Z,6.50
2018-09-01T23:18:22.170Z,4.90
2018-09-01T23:21:05.117Z,4.90
2018-09-01T23:23:48.044Z,5.83
2018-09-01T23:26:31.873Z,5.60
2018-09-01T23:29:15.316Z,5.57
2018-09-01T23:31:57.815Z,6.07
2018-09-01T23:34:40.595Z,6.00
2018-09-01T23:37:23.521Z,5.43
2018-09-01T23:40:06.465Z,5.30
2018-09-01T23:42:49.098Z,5.87
2018-09-01T23:45:32.570Z,6.00
2018-09-01T23:48:15.291Z,4.70
2018-09-01T23:50:58.323Z,5.60
2018-09-01T23:53:40.585Z,4.90
2018-09-01T23:56:23.914Z,4.87
2018-09-01T23:59:06.701Z,6.07
